sensor_id;sensor_type;location;lat;lon;timestamp;pressure;altitude;pressure_sealevel;temperature;humidity
829;BME280;396;52.558;13.188;2023-04-22T00:00:40;101006.47;;;12.31;63.97
829;BME280;396;52.558;13.188;2023-04-22T00:03:07;100997.22;;;12.32;64.58
829;BME280;396;52.558;13.188;2023-04-22T00:05:34;100987.75;;;12.29;64.35
829;BME280;396;52.558;13.188;2023-04-22T00:08:14;100992.38;;;12.29;64.00
829;BME280;396;52.558;13.188;2023-04-22T00:10:44;100986.16;;;12.28;64.60
829;BME280;396;52.558;13.188;2023-04-22T00:13:13;100980.31;;;12.21;63.51
829;BME280;396;52.558;13.188;2023-04-22T00:15:39;100982.00;;;12.17;63.09
829;BME280;396;52.558;13.188;2023-04-22T00:18:06;100976.09;;;12.15;63.54
829;BME280;396;52.558;13.188;2023-04-22T00:20:38;100981.63;;;12.10;63.12
829;BME280;396;52.558;13.188;2023-04-22T00:23:05;100973.28;;;12.06;63.15
829;BME280;396;52.558;13.188;2023-04-22T00:25:32;100964.63;;;12.04;63.16
829;BME280;396;52.558;13.188;2023-04-22T00:27:58;100968.25;;;12.00;63.10
829;BME280;396;52.558;13.188;2023-04-22T00:30:26;100962.31;;;11.98;62.53
829;BME280;396;52.558;13.188;2023-04-22T00:32:53;100962.91;;;11.95;63.58
829;BME280;396;52.558;13.188;2023-04-22T00:35:20;100966.41;;;11.95;64.40
829;BME280;396;52.558;13.188;2023-04-22T00:37:47;100959.91;;;11.96;65.04
829;BME280;396;52.558;13.188;2023-04-22T00:40:13;100960.09;;;12.00;65.41
829;BME280;396;52.558;13.188;2023-04-22T00:42:42;100954.16;;;11.98;65.62
829;BME280;396;52.558;13.188;2023-04-22T00:45:10;100960.38;;;11.98;65.37
829;BME280;396;52.558;13.188;2023-04-22T00:47:39;100951.44;;;11.98;64.58
829;BME280;396;52.558;13.188;2023-04-22T00:50:07;100948.31;;;11.91;64.72
829;BME280;396;52.558;13.188;2023-04-22T00:52:34;100948.84;;;11.93;64.74
829;BME280;396;52.558;13.188;2023-04-22T00:55:00;100953.66;;;11.96;65.75
829;BME280;396;52.558;13.188;2023-04-22T00:57:28;100949.44;;;11.90;65.84
829;BME280;396;52.558;13.188;2023-04-22T00:59:56;100947.81;;;11.89;66.52
829;BME280;396;52.558;13.188;2023-04-22T01:02:22;100943.28;;;11.84;66.91
829;BME280;396;52.558;13.188;2023-04-22T01:04:51;100946.88;;;11.79;67.08
829;BME280;396;52.558;13.188;2023-04-22T01:07:19;100939.44;;;11.71;68.51
829;BME280;396;52.558;13.188;2023-04-22T01:09:46;100939.44;;;11.71;68.91
829;BME280;396;52.558;13.188;2023-04-22T01:12:12;100939.75;;;11.70;68.89
829;BME280;396;52.558;13.188;2023-04-22T01:14:39;100932.78;;;11.63;68.82
829;BME280;396;52.558;13.188;2023-04-22T01:17:06;100935.38;;;11.55;69.01
829;BME280;396;52.558;13.188;2023-04-22T01:19:35;100940.09;;;11.49;69.89
829;BME280;396;52.558;13.188;2023-04-22T01:22:04;100937.84;;;11.37;67.40
829;BME280;396;52.558;13.188;2023-04-22T01:24:33;100933.63;;;11.31;64.59
829;BME280;396;52.558;13.188;2023-04-22T01:27:00;100931.00;;;11.26;66.24
829;BME280;396;52.558;13.188;2023-04-22T01:29:27;100928.16;;;11.18;65.21
829;BME280;396;52.558;13.188;2023-04-22T01:31:54;100923.19;;;11.06;65.99
829;BME280;396;52.558;13.188;2023-04-22T01:34:21;100925.41;;;11.04;66.30
829;BME280;396;52.558;13.188;2023-04-22T01:36:48;100926.56;;;10.98;66.97
829;BME280;396;52.558;13.188;2023-04-22T01:39:15;100922.13;;;10.88;69.94
829;BME280;396;52.558;13.188;2023-04-22T01:41:43;100924.59;;;10.84;71.21
829;BME280;396;52.558;13.188;2023-04-22T01:44:10;100914.16;;;10.78;72.00
829;BME280;396;52.558;13.188;2023-04-22T01:46:36;100925.28;;;10.76;72.25
829;BME280;396;52.558;13.188;2023-04-22T01:49:03;100917.75;;;10.73;74.18
829;BME280;396;52.558;13.188;2023-04-22T01:51:30;100904.50;;;10.72;73.40
829;BME280;396;52.558;13.188;2023-04-22T01:53:56;100906.69;;;10.70;73.94
829;BME280;396;52.558;13.188;2023-04-22T01:56:23;100901.78;;;10.72;73.42
829;BME280;396;52.558;13.188;2023-04-22T01:58:51;100896.06;;;10.73;73.05
829;BME280;396;52.558;13.188;2023-04-22T02:01:17;100901.47;;;10.73;72.82
829;BME280;396;52.558;13.188;2023-04-22T02:03:44;100901.41;;;10.78;73.03
829;BME280;396;52.558;13.188;2023-04-22T02:06:11;100893.66;;;10.72;73.75
829;BME280;396;52.558;13.188;2023-04-22T02:08:37;100893.34;;;10.73;73.45
829;BME280;396;52.558;13.188;2023-04-22T02:11:04;100888.50;;;10.70;73.84
829;BME280;396;52.558;13.188;2023-04-22T02:13:34;100896.16;;;10.68;73.79
829;BME280;396;52.558;13.188;2023-04-22T02:16:03;100889.13;;;10.67;74.21
829;BME280;396;52.558;13.188;2023-04-22T02:18:30;100882.88;;;10.67;74.17
829;BME280;396;52.558;13.188;2023-04-22T02:20:57;100879.09;;;10.68;75.04
829;BME280;396;52.558;13.188;2023-04-22T02:23:24;100886.47;;;10.62;74.90
829;BME280;396;52.558;13.188;2023-04-22T02:25:51;100880.84;;;10.58;75.26
829;BME280;396;52.558;13.188;2023-04-22T02:28:18;100880.03;;;10.58;74.84
829;BME280;396;52.558;13.188;2023-04-22T02:30:45;100871.41;;;10.56;74.74
829;BME280;396;52.558;13.188;2023-04-22T02:33:13;100874.59;;;10.58;74.51
829;BME280;396;52.558;13.188;2023-04-22T02:35:39;100865.97;;;10.56;73.51
829;BME280;396;52.558;13.188;2023-04-22T02:38:06;100868.19;;;10.54;74.04
829;BME280;396;52.558;13.188;2023-04-22T02:40:33;100867.34;;;10.53;73.09
829;BME280;396;52.558;13.188;2023-04-22T02:42:59;100866.56;;;10.53;69.74
829;BME280;396;52.558;13.188;2023-04-22T02:45:26;100862.25;;;10.52;68.68
829;BME280;396;52.558;13.188;2023-04-22T02:47:52;100865.47;;;10.54;67.99
829;BME280;396;52.558;13.188;2023-04-22T02:50:20;100867.88;;;10.55;67.49
829;BME280;396;52.558;13.188;2023-04-22T02:52:47;100864.88;;;10.57;66.47
829;BME280;396;52.558;13.188;2023-04-22T02:55:14;100857.56;;;10.57;66.11
829;BME280;396;52.558;13.188;2023-04-22T02:57:40;100858.34;;;10.58;67.29
829;BME280;396;52.558;13.188;2023-04-22T03:00:08;100857.50;;;10.63;68.84
829;BME280;396;52.558;13.188;2023-04-22T03:02:35;100862.63;;;10.64;70.11
829;BME280;396;52.558;13.188;2023-04-22T03:05:02;100866.84;;;10.70;69.86
829;BME280;396;52.558;13.188;2023-04-22T03:07:30;100859.25;;;10.72;69.34
829;BME280;396;52.558;13.188;2023-04-22T03:09:57;100867.88;;;10.74;69.32
829;BME280;396;52.558;13.188;2023-04-22T03:12:24;100858.03;;;10.78;69.39
829;BME280;396;52.558;13.188;2023-04-22T03:14:51;100858.63;;;10.75;69.02
829;BME280;396;52.558;13.188;2023-04-22T03:17:17;100853.72;;;10.77;68.89
829;BME280;396;52.558;13.188;2023-04-22T03:19:45;100857.25;;;10.78;70.31
829;BME280;396;52.558;13.188;2023-04-22T03:22:11;100858.03;;;10.78;69.62
829;BME280;396;52.558;13.188;2023-04-22T03:24:39;100857.81;;;10.75;70.41
829;BME280;396;52.558;13.188;2023-04-22T03:27:06;100858.94;;;10.74;70.77
829;BME280;396;52.558;13.188;2023-04-22T03:29:33;100857.59;;;10.71;71.05
829;BME280;396;52.558;13.188;2023-04-22T03:32:00;100857.91;;;10.70;71.19
829;BME280;396;52.558;13.188;2023-04-22T03:34:26;100850.38;;;10.67;71.61
829;BME280;396;52.558;13.188;2023-04-22T03:36:53;100848.28;;;10.64;71.74
829;BME280;396;52.558;13.188;2023-04-22T03:39:19;100854.78;;;10.63;72.19
829;BME280;396;52.558;13.188;2023-04-22T03:41:47;100853.47;;;10.60;72.41
829;BME280;396;52.558;13.188;2023-04-22T03:44:14;100854.69;;;10.49;72.82
829;BME280;396;52.558;13.188;2023-04-22T03:46:40;100861.31;;;10.43;73.36
829;BME280;396;52.558;13.188;2023-04-22T03:49:07;100859.25;;;10.34;74.16
829;BME280;396;52.558;13.188;2023-04-22T03:51:34;100853.25;;;10.38;74.55
829;BME280;396;52.558;13.188;2023-04-22T03:54:00;100851.53;;;10.23;76.21
829;BME280;396;52.558;13.188;2023-04-22T03:56:27;100854.59;;;10.16;76.04
829;BME280;396;52.558;13.188;2023-04-22T03:58:55;100861.47;;;10.08;74.30
829;BME280;396;52.558;13.188;2023-04-22T04:01:21;100853.19;;;10.00;72.68
829;BME280;396;52.558;13.188;2023-04-22T04:03:48;100854.34;;;9.94;73.03
829;BME280;396;52.558;13.188;2023-04-22T04:06:15;100850.28;;;9.72;73.80
829;BME280;396;52.558;13.188;2023-04-22T04:08:41;100848.38;;;9.49;75.21
829;BME280;396;52.558;13.188;2023-04-22T04:11:08;100848.44;;;9.44;74.95
829;BME280;396;52.558;13.188;2023-04-22T04:13:36;100846.53;;;9.44;75.81
829;BME280;396;52.558;13.188;2023-04-22T04:16:04;100839.91;;;9.31;79.27
829;BME280;396;52.558;13.188;2023-04-22T04:18:31;100843.72;;;9.30;80.20
829;BME280;396;52.558;13.188;2023-04-22T04:20:57;100845.22;;;9.42;79.81
829;BME280;396;52.558;13.188;2023-04-22T04:23:24;100847.16;;;9.36;80.78
829;BME280;396;52.558;13.188;2023-04-22T04:25:51;100843.91;;;9.39;80.65
829;BME280;396;52.558;13.188;2023-04-22T04:28:18;100846.53;;;9.44;80.58
829;BME280;396;52.558;13.188;2023-04-22T04:30:44;100854.75;;;9.34;81.87
829;BME280;396;52.558;13.188;2023-04-22T04:33:12;100852.88;;;9.34;81.59
829;BME280;396;52.558;13.188;2023-04-22T04:35:41;100841.09;;;9.20;82.39
829;BME280;396;52.558;13.188;2023-04-22T04:38:09;100842.94;;;9.25;81.95
829;BME280;396;52.558;13.188;2023-04-22T04:40:36;100847.78;;;9.28;81.80
829;BME280;396;52.558;13.188;2023-04-22T04:43:02;100854.59;;;9.25;82.32
829;BME280;396;52.558;13.188;2023-04-22T04:45:32;100847.84;;;9.23;83.08
829;BME280;396;52.558;13.188;2023-04-22T04:48:01;100847.78;;;9.28;82.86
829;BME280;396;52.558;13.188;2023-04-22T04:50:29;100853.69;;;9.35;83.12
829;BME280;396;52.558;13.188;2023-04-22T04:52:56;100848.50;;;9.39;83.27
829;BME280;396;52.558;13.188;2023-04-22T04:55:22;100852.75;;;9.45;83.39
829;BME280;396;52.558;13.188;2023-04-22T04:57:49;100851.03;;;9.54;84.21
829;BME280;396;52.558;13.188;2023-04-22T05:00:16;100848.28;;;9.59;84.38
829;BME280;396;52.558;13.188;2023-04-22T05:02:43;100842.84;;;9.59;84.59
829;BME280;396;52.558;13.188;2023-04-22T05:05:09;100843.25;;;9.71;83.45
829;BME280;396;52.558;13.188;2023-04-22T05:07:37;100845.41;;;9.74;82.96
829;BME280;396;52.558;13.188;2023-04-22T05:10:05;100839.84;;;9.84;81.56
829;BME280;396;52.558;13.188;2023-04-22T05:12:32;100844.09;;;9.91;80.47
829;BME280;396;52.558;13.188;2023-04-22T05:14:58;100845.88;;;10.00;78.23
829;BME280;396;52.558;13.188;2023-04-22T05:17:25;100841.94;;;10.11;77.59
829;BME280;396;52.558;13.188;2023-04-22T05:19:52;100841.78;;;10.22;76.25
829;BME280;396;52.558;13.188;2023-04-22T05:22:18;100845.78;;;10.29;75.11
829;BME280;396;52.558;13.188;2023-04-22T05:24:46;100841.00;;;10.40;74.08
829;BME280;396;52.558;13.188;2023-04-22T05:27:13;100847.81;;;10.56;73.61
829;BME280;396;52.558;13.188;2023-04-22T05:29:40;100845.25;;;10.65;73.04
829;BME280;396;52.558;13.188;2023-04-22T05:32:06;100849.69;;;10.75;72.40
829;BME280;396;52.558;13.188;2023-04-22T05:34:33;100853.66;;;10.82;72.18
829;BME280;396;52.558;13.188;2023-04-22T05:37:01;100854.22;;;10.98;71.54
829;BME280;396;52.558;13.188;2023-04-22T05:39:28;100849.41;;;11.09;71.40
829;BME280;396;52.558;13.188;2023-04-22T05:41:56;100852.16;;;11.23;70.38
829;BME280;396;52.558;13.188;2023-04-22T05:44:23;100852.47;;;11.35;70.01
829;BME280;396;52.558;13.188;2023-04-22T05:46:49;100862.22;;;11.50;69.57
829;BME280;396;52.558;13.188;2023-04-22T05:49:16;100859.63;;;11.58;69.28
829;BME280;396;52.558;13.188;2023-04-22T05:51:42;100864.56;;;11.70;68.43
829;BME280;396;52.558;13.188;2023-04-22T05:54:09;100861.63;;;11.80;68.04
829;BME280;396;52.558;13.188;2023-04-22T05:56:36;100862.06;;;11.88;67.95
829;BME280;396;52.558;13.188;2023-04-22T05:59:04;100868.09;;;11.98;67.10
829;BME280;396;52.558;13.188;2023-04-22T06:01:30;100865.47;;;12.07;65.53
829;BME280;396;52.558;13.188;2023-04-22T06:03:57;100866.56;;;12.20;65.35
829;BME280;396;52.558;13.188;2023-04-22T06:06:23;100863.81;;;12.33;64.25
829;BME280;396;52.558;13.188;2023-04-22T06:08:50;100862.59;;;12.40;63.81
829;BME280;396;52.558;13.188;2023-04-22T06:11:17;100866.88;;;12.54;63.00
829;BME280;396;52.558;13.188;2023-04-22T06:13:43;100863.91;;;12.65;62.87
829;BME280;396;52.558;13.188;2023-04-22T06:16:11;100861.38;;;12.68;62.57
829;BME280;396;52.558;13.188;2023-04-22T06:18:38;100864.47;;;12.75;62.61
829;BME280;396;52.558;13.188;2023-04-22T06:21:05;100863.09;;;12.86;62.71
829;BME280;396;52.558;13.188;2023-04-22T06:23:31;100868.94;;;12.94;61.58
829;BME280;396;52.558;13.188;2023-04-22T06:25:58;100874.72;;;13.01;61.11
829;BME280;396;52.558;13.188;2023-04-22T06:28:25;100865.19;;;13.12;60.43
829;BME280;396;52.558;13.188;2023-04-22T06:30:52;100866.06;;;13.21;60.54
829;BME280;396;52.558;13.188;2023-04-22T06:33:20;100861.31;;;13.27;61.80
829;BME280;396;52.558;13.188;2023-04-22T06:35:47;100863.22;;;13.26;60.94
829;BME280;396;52.558;13.188;2023-04-22T06:38:13;100860.38;;;13.31;60.88
829;BME280;396;52.558;13.188;2023-04-22T06:40:40;100858.94;;;13.34;61.12
829;BME280;396;52.558;13.188;2023-04-22T06:43:07;100864.56;;;13.37;60.90
829;BME280;396;52.558;13.188;2023-04-22T06:45:34;100862.38;;;13.48;60.48
829;BME280;396;52.558;13.188;2023-04-22T06:48:00;100857.75;;;13.57;60.01
829;BME280;396;52.558;13.188;2023-04-22T06:50:28;100854.72;;;13.59;60.33
829;BME280;396;52.558;13.188;2023-04-22T06:52:55;100856.66;;;13.67;59.76
829;BME280;396;52.558;13.188;2023-04-22T06:55:22;100855.91;;;13.75;59.55
829;BME280;396;52.558;13.188;2023-04-22T06:57:49;100861.88;;;13.86;57.78
829;BME280;396;52.558;13.188;2023-04-22T07:00:16;100858.22;;;13.99;57.45
829;BME280;396;52.558;13.188;2023-04-22T07:02:43;100856.94;;;14.05;58.58
829;BME280;396;52.558;13.188;2023-04-22T07:05:09;100855.53;;;14.08;58.28
829;BME280;396;52.558;13.188;2023-04-22T07:07:38;100859.06;;;14.17;58.02
829;BME280;396;52.558;13.188;2023-04-22T07:10:05;100870.13;;;14.29;57.78
829;BME280;396;52.558;13.188;2023-04-22T07:12:32;100873.19;;;14.36;57.41
829;BME280;396;52.558;13.188;2023-04-22T07:14:58;100866.81;;;14.50;56.29
829;BME280;396;52.558;13.188;2023-04-22T07:17:25;100873.06;;;14.59;57.05
829;BME280;396;52.558;13.188;2023-04-22T07:19:52;100863.59;;;14.65;56.69
829;BME280;396;52.558;13.188;2023-04-22T07:22:18;100855.72;;;14.72;56.71
829;BME280;396;52.558;13.188;2023-04-22T07:24:46;100858.91;;;14.83;56.91
829;BME280;396;52.558;13.188;2023-04-22T07:27:13;100855.25;;;14.87;57.00
829;BME280;396;52.558;13.188;2023-04-22T07:29:39;100853.94;;;14.94;56.63
829;BME280;396;52.558;13.188;2023-04-22T07:32:06;100853.91;;;15.11;54.72
829;BME280;396;52.558;13.188;2023-04-22T07:34:33;100855.66;;;15.24;55.03
829;BME280;396;52.558;13.188;2023-04-22T07:36:59;100852.41;;;15.31;55.22
829;BME280;396;52.558;13.188;2023-04-22T07:39:26;100855.91;;;15.40;54.79
829;BME280;396;52.558;13.188;2023-04-22T07:41:54;100849.94;;;15.47;54.80
829;BME280;396;52.558;13.188;2023-04-22T07:44:22;100847.19;;;15.55;54.26
829;BME280;396;52.558;13.188;2023-04-22T07:46:48;100850.38;;;15.66;55.00
829;BME280;396;52.558;13.188;2023-04-22T07:49:15;100851.81;;;15.72;54.92
829;BME280;396;52.558;13.188;2023-04-22T07:51:42;100852.69;;;15.85;54.38
829;BME280;396;52.558;13.188;2023-04-22T07:54:09;100849.28;;;15.88;54.31
829;BME280;396;52.558;13.188;2023-04-22T07:56:35;100837.56;;;15.87;53.30
829;BME280;396;52.558;13.188;2023-04-22T07:59:03;100828.38;;;15.92;53.72
829;BME280;396;52.558;13.188;2023-04-22T08:01:30;100834.78;;;15.96;53.15
829;BME280;396;52.558;13.188;2023-04-22T08:03:56;100827.31;;;16.05;53.47
829;BME280;396;52.558;13.188;2023-04-22T08:06:23;100831.59;;;16.15;52.95
829;BME280;396;52.558;13.188;2023-04-22T08:08:50;100817.56;;;16.25;53.60
829;BME280;396;52.558;13.188;2023-04-22T08:11:16;100824.69;;;16.38;52.44
829;BME280;396;52.558;13.188;2023-04-22T08:13:43;100829.38;;;16.50;52.64
829;BME280;396;52.558;13.188;2023-04-22T08:16:11;100826.25;;;16.60;52.56
829;BME280;396;52.558;13.188;2023-04-22T08:18:38;100815.44;;;16.64;51.86
829;BME280;396;52.558;13.188;2023-04-22T08:21:04;100826.44;;;16.76;51.76
829;BME280;396;52.558;13.188;2023-04-22T08:23:31;100817.53;;;17.00;50.05
829;BME280;396;52.558;13.188;2023-04-22T08:25:58;100823.63;;;17.18;49.62
829;BME280;396;52.558;13.188;2023-04-22T08:28:24;100818.34;;;17.25;48.51
829;BME280;396;52.558;13.188;2023-04-22T08:30:51;100817.94;;;17.35;48.47
829;BME280;396;52.558;13.188;2023-04-22T08:33:19;100818.16;;;17.43;49.66
829;BME280;396;52.558;13.188;2023-04-22T08:35:46;100819.75;;;17.44;49.19
829;BME280;396;52.558;13.188;2023-04-22T08:38:12;100813.16;;;17.45;49.79
829;BME280;396;52.558;13.188;2023-04-22T08:40:40;100809.03;;;17.51;50.25
829;BME280;396;52.558;13.188;2023-04-22T08:43:07;100811.78;;;17.63;50.78
829;BME280;396;52.558;13.188;2023-04-22T08:45:36;100814.41;;;17.72;49.48
829;BME280;396;52.558;13.188;2023-04-22T08:48:05;100813.03;;;17.78;49.85
829;BME280;396;52.558;13.188;2023-04-22T08:50:35;100810.06;;;17.83;49.41
829;BME280;396;52.558;13.188;2023-04-22T08:53:02;100812.91;;;17.86;49.93
829;BME280;396;52.558;13.188;2023-04-22T08:55:29;100822.06;;;17.90;49.13
829;BME280;396;52.558;13.188;2023-04-22T08:57:58;100812.66;;;18.04;49.27
829;BME280;396;52.558;13.188;2023-04-22T09:00:26;100819.22;;;18.27;47.69
829;BME280;396;52.558;13.188;2023-04-22T09:02:53;100815.13;;;18.33;48.51
829;BME280;396;52.558;13.188;2023-04-22T09:05:21;100813.28;;;18.37;48.97
829;BME280;396;52.558;13.188;2023-04-22T09:07:50;100807.06;;;18.40;48.62
829;BME280;396;52.558;13.188;2023-04-22T09:10:18;100805.47;;;18.39;48.84
829;BME280;396;52.558;13.188;2023-04-22T09:12:45;100803.13;;;18.54;48.97
829;BME280;396;52.558;13.188;2023-04-22T09:15:12;100798.66;;;18.61;48.32
829;BME280;396;52.558;13.188;2023-04-22T09:17:39;100801.59;;;18.69;47.99
829;BME280;396;52.558;13.188;2023-04-22T09:20:08;100795.78;;;18.70;47.49
829;BME280;396;52.558;13.188;2023-04-22T09:22:38;100788.22;;;18.67;47.88
829;BME280;396;52.558;13.188;2023-04-22T09:25:14;100792.03;;;18.90;46.72
829;BME280;396;52.558;13.188;2023-04-22T09:27:41;100783.69;;;19.03;47.72
829;BME280;396;52.558;13.188;2023-04-22T09:30:08;100794.16;;;19.13;46.90
829;BME280;396;52.558;13.188;2023-04-22T09:32:35;100784.50;;;19.19;47.84
829;BME280;396;52.558;13.188;2023-04-22T09:35:02;100780.25;;;19.22;47.18
829;BME280;396;52.558;13.188;2023-04-22T09:37:29;100779.53;;;19.25;47.21
829;BME280;396;52.558;13.188;2023-04-22T09:39:56;100787.16;;;19.31;46.71
829;BME280;396;52.558;13.188;2023-04-22T09:42:24;100775.25;;;19.43;47.63
829;BME280;396;52.558;13.188;2023-04-22T09:44:51;100773.06;;;19.49;47.67
829;BME280;396;52.558;13.188;2023-04-22T09:47:18;100779.59;;;19.60;47.10
829;BME280;396;52.558;13.188;2023-04-22T09:49:45;100768.09;;;19.70;45.47
829;BME280;396;52.558;13.188;2023-04-22T09:52:20;100768.22;;;19.77;44.48
829;BME280;396;52.558;13.188;2023-04-22T09:54:48;100760.50;;;19.83;46.05
829;BME280;396;52.558;13.188;2023-04-22T09:57:16;100754.53;;;19.97;46.21
829;BME280;396;52.558;13.188;2023-04-22T09:59:44;100757.19;;;20.12;45.28
829;BME280;396;52.558;13.188;2023-04-22T10:02:11;100749.66;;;20.09;45.79
829;BME280;396;52.558;13.188;2023-04-22T10:04:37;100751.91;;;20.04;43.39
829;BME280;396;52.558;13.188;2023-04-22T10:07:04;100747.38;;;20.11;44.86
829;BME280;396;52.558;13.188;2023-04-22T10:09:31;100745.47;;;20.15;46.05
829;BME280;396;52.558;13.188;2023-04-22T10:11:58;100742.28;;;20.33;44.79
829;BME280;396;52.558;13.188;2023-04-22T10:14:26;100740.09;;;20.61;42.18
829;BME280;396;52.558;13.188;2023-04-22T10:16:57;100739.56;;;20.75;41.22
829;BME280;396;52.558;13.188;2023-04-22T10:19:25;100739.69;;;20.82;41.80
829;BME280;396;52.558;13.188;2023-04-22T10:21:55;100726.41;;;20.88;43.82
829;BME280;396;52.558;13.188;2023-04-22T10:24:25;100723.84;;;20.99;39.98
829;BME280;396;52.558;13.188;2023-04-22T10:26:54;100721.13;;;21.02;40.40
829;BME280;396;52.558;13.188;2023-04-22T10:29:22;100714.72;;;20.95;41.09
829;BME280;396;52.558;13.188;2023-04-22T10:31:55;100718.34;;;20.99;41.33
829;BME280;396;52.558;13.188;2023-04-22T10:34:22;100713.31;;;21.04;41.28
829;BME280;396;52.558;13.188;2023-04-22T10:36:58;100712.28;;;21.16;39.86
829;BME280;396;52.558;13.188;2023-04-22T10:39:26;100714.00;;;21.24;40.59
829;BME280;396;52.558;13.188;2023-04-22T10:41:56;100702.63;;;21.26;40.05
829;BME280;396;52.558;13.188;2023-04-22T10:44:27;100702.16;;;21.47;36.83
829;BME280;396;52.558;13.188;2023-04-22T10:46:59;100705.81;;;21.54;37.01
829;BME280;396;52.558;13.188;2023-04-22T10:49:29;100709.47;;;21.62;36.57
829;BME280;396;52.558;13.188;2023-04-22T10:51:57;100696.19;;;21.71;36.54
829;BME280;396;52.558;13.188;2023-04-22T10:54:55;100709.44;;;21.88;36.28
829;BME280;396;52.558;13.188;2023-04-22T10:57:28;100699.56;;;21.87;36.62
829;BME280;396;52.558;13.188;2023-04-22T11:00:00;100695.06;;;22.06;35.33
829;BME280;396;52.558;13.188;2023-04-22T11:02:28;100701.41;;;22.10;37.27
829;BME280;396;52.558;13.188;2023-04-22T11:05:18;100699.59;;;22.21;38.33
829;BME280;396;52.558;13.188;2023-04-22T11:07:46;100693.91;;;22.40;38.58
829;BME280;396;52.558;13.188;2023-04-22T11:10:32;100689.38;;;22.66;38.79
829;BME280;396;52.558;13.188;2023-04-22T11:13:00;100681.06;;;23.03;38.45
829;BME280;396;52.558;13.188;2023-04-22T11:15:29;100675.88;;;23.60;37.12
829;BME280;396;52.558;13.188;2023-04-22T11:17:57;100680.16;;;24.45;37.33
829;BME280;396;52.558;13.188;2023-04-22T11:20:24;100686.16;;;25.15;34.72
829;BME280;396;52.558;13.188;2023-04-22T11:22:52;100682.84;;;25.77;33.61
829;BME280;396;52.558;13.188;2023-04-22T11:25:19;100682.13;;;26.39;32.70
829;BME280;396;52.558;13.188;2023-04-22T11:27:46;100685.25;;;27.01;30.57
829;BME280;396;52.558;13.188;2023-04-22T11:30:15;100693.50;;;27.08;30.88
829;BME280;396;52.558;13.188;2023-04-22T11:32:44;100685.50;;;27.55;30.02
829;BME280;396;52.558;13.188;2023-04-22T11:35:14;100682.56;;;27.73;31.47
829;BME280;396;52.558;13.188;2023-04-22T11:37:42;100682.59;;;28.00;30.80
829;BME280;396;52.558;13.188;2023-04-22T11:40:09;100692.44;;;28.38;30.00
829;BME280;396;52.558;13.188;2023-04-22T11:42:36;100682.81;;;28.12;29.79
829;BME280;396;52.558;13.188;2023-04-22T11:45:04;100682.47;;;28.37;30.38
829;BME280;396;52.558;13.188;2023-04-22T11:47:32;100674.91;;;29.12;29.82
829;BME280;396;52.558;13.188;2023-04-22T11:50:01;100680.28;;;29.66;28.79
829;BME280;396;52.558;13.188;2023-04-22T11:52:43;100666.44;;;29.39;28.83
829;BME280;396;52.558;13.188;2023-04-22T11:55:10;100660.59;;;29.73;29.28
829;BME280;396;52.558;13.188;2023-04-22T11:57:37;100652.59;;;30.11;28.44
829;BME280;396;52.558;13.188;2023-04-22T12:00:04;100664.69;;;30.05;27.14
829;BME280;396;52.558;13.188;2023-04-22T12:02:31;100662.53;;;29.76;27.13
829;BME280;396;52.558;13.188;2023-04-22T12:04:58;100668.09;;;29.36;25.88
829;BME280;396;52.558;13.188;2023-04-22T12:07:25;100660.03;;;29.62;27.16
829;BME280;396;52.558;13.188;2023-04-22T12:09:54;100658.09;;;29.59;27.45
829;BME280;396;52.558;13.188;2023-04-22T12:12:23;100656.81;;;30.36;27.45
829;BME280;396;52.558;13.188;2023-04-22T12:14:50;100669.19;;;30.87;27.15
829;BME280;396;52.558;13.188;2023-04-22T12:17:21;100665.97;;;31.34;24.96
829;BME280;396;52.558;13.188;2023-04-22T12:19:52;100662.13;;;31.28;25.34
829;BME280;396;52.558;13.188;2023-04-22T12:22:25;100669.31;;;31.13;26.15
829;BME280;396;52.558;13.188;2023-04-22T12:24:57;100664.03;;;31.31;25.10
829;BME280;396;52.558;13.188;2023-04-22T12:27:23;100657.91;;;31.36;25.91
829;BME280;396;52.558;13.188;2023-04-22T12:29:51;100651.47;;;31.65;26.21
829;BME280;396;52.558;13.188;2023-04-22T12:32:19;100656.59;;;31.25;24.98
829;BME280;396;52.558;13.188;2023-04-22T12:34:46;100659.81;;;30.94;25.02
829;BME280;396;52.558;13.188;2023-04-22T12:37:12;100660.47;;;31.31;24.93
829;BME280;396;52.558;13.188;2023-04-22T12:39:39;100657.06;;;31.07;25.10
829;BME280;396;52.558;13.188;2023-04-22T12:42:07;100643.06;;;30.78;22.79
829;BME280;396;52.558;13.188;2023-04-22T12:44:34;100654.22;;;30.61;25.65
829;BME280;396;52.558;13.188;2023-04-22T12:47:01;100638.22;;;30.62;24.93
829;BME280;396;52.558;13.188;2023-04-22T12:49:28;100646.44;;;30.53;24.29
829;BME280;396;52.558;13.188;2023-04-22T12:51:54;100641.00;;;30.46;25.46
829;BME280;396;52.558;13.188;2023-04-22T12:54:22;100639.63;;;30.21;24.97
829;BME280;396;52.558;13.188;2023-04-22T12:56:49;100643.00;;;29.92;24.16
829;BME280;396;52.558;13.188;2023-04-22T12:59:18;100640.50;;;30.51;25.09
829;BME280;396;52.558;13.188;2023-04-22T13:01:44;100634.69;;;31.07;25.85
829;BME280;396;52.558;13.188;2023-04-22T13:04:11;100631.34;;;31.70;24.04
829;BME280;396;52.558;13.188;2023-04-22T13:06:37;100632.44;;;31.73;22.50
829;BME280;396;52.558;13.188;2023-04-22T13:09:06;100628.25;;;30.94;24.54
829;BME280;396;52.558;13.188;2023-04-22T13:11:32;100620.63;;;30.94;24.02
829;BME280;396;52.558;13.188;2023-04-22T13:13:59;100617.00;;;31.10;23.51
829;BME280;396;52.558;13.188;2023-04-22T13:16:27;100618.56;;;31.11;23.70
829;BME280;396;52.558;13.188;2023-04-22T13:18:53;100613.88;;;31.37;23.55
829;BME280;396;52.558;13.188;2023-04-22T13:21:20;100621.66;;;31.58;24.62
829;BME280;396;52.558;13.188;2023-04-22T13:23:46;100617.13;;;31.35;23.87